sensor_id;sensor_type;location;lat;lon;timestamp;P1;durP1;ratioP1;P2;durP2;ratioP2
1467;SDS011;727;48.892;9.544;2024-03-22T00:02:08;5.90;;;4.90;;
1467;SDS011;727;48.892;9.544;2024-03-22T00:04:34;5.70;;;5.20;;
1467;SDS011;727;48.892;9.544;2024-03-22T00:07:00;6.60;;;5.70;;
1467;SDS011;727;48.892;9.544;2024-03-22T00:09:26;5.67;;;5.17;;
1467;SDS011;727;48.892;9.544;2024-03-22T00:11:53;8.75;;;6.65;;
1467;SDS011;727;48.892;9.544;2024-03-22T00:14:18;7.47;;;5.40;;
1467;SDS011;727;48.892;9.544;2024-03-22T00:16:45;8.27;;;6.22;;
1467;SDS011;727;48.892;9.544;2024-03-22T00:19:12;7.87;;;6.57;;
1467;SDS011;727;48.892;9.544;2024-03-22T00:21:39;7.70;;;6.07;;
1467;SDS011;727;48.892;9.544;2024-03-22T00:24:04;7.20;;;6.30;;
1467;SDS011;727;48.892;9.544;2024-03-22T00:26:31;6.82;;;6.05;;
1467;SDS011;727;48.892;9.544;2024-03-22T00:28:57;7.70;;;6.60;;
1467;SDS011;727;48.892;9.544;2024-03-22T00:31:24;6.80;;;5.97;;
1467;SDS011;727;48.892;9.544;2024-03-22T00:33:50;8.52;;;6.18;;
1467;SDS011;727;48.892;9.544;2024-03-22T00:36:18;8.90;;;6.55;;
1467;SDS011;727;48.892;9.544;2024-03-22T00:38:43;6.53;;;5.90;;
1467;SDS011;727;48.892;9.544;2024-03-22T00:41:10;10.40;;;6.40;;
1467;SDS011;727;48.892;9.544;2024-03-22T00:43:36;10.27;;;7.37;;
1467;SDS011;727;48.892;9.544;2024-03-22T00:46:03;7.28;;;6.30;;
1467;SDS011;727;48.892;9.544;2024-03-22T00:48:29;9.25;;;6.82;;
1467;SDS011;727;48.892;9.544;2024-03-22T00:50:55;8.10;;;6.45;;
1467;SDS011;727;48.892;9.544;2024-03-22T00:53:23;6.93;;;6.20;;
1467;SDS011;727;48.892;9.544;2024-03-22T00:55:49;9.45;;;6.65;;
1467;SDS011;727;48.892;9.544;2024-03-22T00:58:17;11.07;;;8.00;;
1467;SDS011;727;48.892;9.544;2024-03-22T01:00:43;9.40;;;7.75;;
1467;SDS011;727;48.892;9.544;2024-03-22T01:03:10;10.05;;;6.90;;
1467;SDS011;727;48.892;9.544;2024-03-22T01:05:36;8.60;;;6.43;;
1467;SDS011;727;48.892;9.544;2024-03-22T01:08:03;7.82;;;6.68;;
1467;SDS011;727;48.892;9.544;2024-03-22T01:10:32;7.93;;;6.68;;
1467;SDS011;727;48.892;9.544;2024-03-22T01:12:59;9.15;;;7.00;;
1467;SDS011;727;48.892;9.544;2024-03-22T01:15:25;12.32;;;7.10;;
1467;SDS011;727;48.892;9.544;2024-03-22T01:17:52;9.33;;;7.20;;
1467;SDS011;727;48.892;9.544;2024-03-22T01:20:19;9.02;;;7.95;;
1467;SDS011;727;48.892;9.544;2024-03-22T01:22:45;9.30;;;6.73;;
1467;SDS011;727;48.892;9.544;2024-03-22T01:25:11;12.32;;;7.20;;
1467;SDS011;727;48.892;9.544;2024-03-22T01:27:38;12.07;;;8.37;;
1467;SDS011;727;48.892;9.544;2024-03-22T01:30:05;8.75;;;7.05;;
1467;SDS011;727;48.892;9.544;2024-03-22T01:32:31;9.35;;;6.70;;
1467;SDS011;727;48.892;9.544;2024-03-22T01:34:58;9.15;;;8.23;;
1467;SDS011;727;48.892;9.544;2024-03-22T01:37:24;12.77;;;9.60;;
1467;SDS011;727;48.892;9.544;2024-03-22T01:39:50;12.10;;;10.90;;
1467;SDS011;727;48.892;9.544;2024-03-22T01:42:16;9.97;;;8.93;;
1467;SDS011;727;48.892;9.544;2024-03-22T01:44:44;16.77;;;10.02;;
1467;SDS011;727;48.892;9.544;2024-03-22T01:47:10;9.02;;;7.78;;
1467;SDS011;727;48.892;9.544;2024-03-22T01:49:37;8.77;;;7.97;;
1467;SDS011;727;48.892;9.544;2024-03-22T01:52:03;10.00;;;6.53;;
1467;SDS011;727;48.892;9.544;2024-03-22T01:54:30;11.95;;;8.27;;
1467;SDS011;727;48.892;9.544;2024-03-22T01:56:56;9.85;;;7.70;;
1467;SDS011;727;48.892;9.544;2024-03-22T01:59:23;8.40;;;6.93;;
1467;SDS011;727;48.892;9.544;2024-03-22T02:01:50;10.80;;;7.10;;
1467;SDS011;727;48.892;9.544;2024-03-22T02:04:17;9.13;;;7.10;;
1467;SDS011;727;48.892;9.544;2024-03-22T02:06:42;7.37;;;6.60;;
1467;SDS011;727;48.892;9.544;2024-03-22T02:09:09;7.93;;;6.97;;
1467;SDS011;727;48.892;9.544;2024-03-22T02:11:35;11.07;;;7.30;;
1467;SDS011;727;48.892;9.544;2024-03-22T02:14:03;9.35;;;8.02;;
1467;SDS011;727;48.892;9.544;2024-03-22T02:16:29;9.03;;;6.93;;
1467;SDS011;727;48.892;9.544;2024-03-22T02:18:57;9.98;;;7.00;;
1467;SDS011;727;48.892;9.544;2024-03-22T02:21:23;7.97;;;7.10;;
1467;SDS011;727;48.892;9.544;2024-03-22T02:23:50;8.57;;;7.35;;
1467;SDS011;727;48.892;9.544;2024-03-22T02:26:16;11.50;;;6.10;;
1467;SDS011;727;48.892;9.544;2024-03-22T02:28:43;8.80;;;7.43;;
1467;SDS011;727;48.892;9.544;2024-03-22T02:31:08;16.43;;;7.93;;
1467;SDS011;727;48.892;9.544;2024-03-22T02:33:35;10.23;;;7.40;;
1467;SDS011;727;48.892;9.544;2024-03-22T02:36:01;8.33;;;7.53;;
1467;SDS011;727;48.892;9.544;2024-03-22T02:38:27;8.02;;;7.20;;
1467;SDS011;727;48.892;9.544;2024-03-22T02:40:54;10.27;;;8.67;;
1467;SDS011;727;48.892;9.544;2024-03-22T02:43:21;10.05;;;7.53;;
1467;SDS011;727;48.892;9.544;2024-03-22T02:45:47;10.10;;;8.00;;
1467;SDS011;727;48.892;9.544;2024-03-22T02:48:14;8.20;;;7.15;;
1467;SDS011;727;48.892;9.544;2024-03-22T02:50:40;10.43;;;7.72;;
1467;SDS011;727;48.892;9.544;2024-03-22T02:53:07;15.07;;;7.43;;
1467;SDS011;727;48.892;9.544;2024-03-22T02:55:36;9.30;;;7.70;;
1467;SDS011;727;48.892;9.544;2024-03-22T02:58:05;8.48;;;6.80;;
1467;SDS011;727;48.892;9.544;2024-03-22T03:00:31;7.65;;;6.40;;
1467;SDS011;727;48.892;9.544;2024-03-22T03:02:58;9.20;;;6.78;;
1467;SDS011;727;48.892;9.544;2024-03-22T03:05:24;10.30;;;6.90;;
1467;SDS011;727;48.892;9.544;2024-03-22T03:07:51;12.50;;;7.72;;
1467;SDS011;727;48.892;9.544;2024-03-22T03:10:17;9.60;;;7.07;;
1467;SDS011;727;48.892;9.544;2024-03-22T03:12:43;9.23;;;7.63;;
1467;SDS011;727;48.892;9.544;2024-03-22T03:15:10;9.53;;;8.30;;
1467;SDS011;727;48.892;9.544;2024-03-22T03:17:37;10.48;;;8.18;;
1467;SDS011;727;48.892;9.544;2024-03-22T03:20:03;12.90;;;7.80;;
1467;SDS011;727;48.892;9.544;2024-03-22T03:22:35;9.50;;;7.47;;
1467;SDS011;727;48.892;9.544;2024-03-22T03:25:01;9.93;;;8.07;;
1467;SDS011;727;48.892;9.544;2024-03-22T03:27:30;10.32;;;7.30;;
1467;SDS011;727;48.892;9.544;2024-03-22T03:29:55;8.40;;;7.50;;
1467;SDS011;727;48.892;9.544;2024-03-22T03:32:23;10.30;;;7.00;;
1467;SDS011;727;48.892;9.544;2024-03-22T03:34:49;9.65;;;8.45;;
1467;SDS011;727;48.892;9.544;2024-03-22T03:37:16;10.82;;;8.38;;
1467;SDS011;727;48.892;9.544;2024-03-22T03:39:42;10.90;;;7.20;;
1467;SDS011;727;48.892;9.544;2024-03-22T03:42:09;9.95;;;7.93;;
1467;SDS011;727;48.892;9.544;2024-03-22T03:44:35;9.70;;;7.47;;
1467;SDS011;727;48.892;9.544;2024-03-22T03:47:01;12.15;;;8.35;;
1467;SDS011;727;48.892;9.544;2024-03-22T03:49:29;12.77;;;8.60;;
1467;SDS011;727;48.892;9.544;2024-03-22T03:51:55;10.48;;;8.40;;
1467;SDS011;727;48.892;9.544;2024-03-22T03:54:21;14.10;;;9.93;;
1467;SDS011;727;48.892;9.544;2024-03-22T03:56:48;14.45;;;9.20;;
1467;SDS011;727;48.892;9.544;2024-03-22T03:59:13;10.50;;;7.80;;
1467;SDS011;727;48.892;9.544;2024-03-22T04:01:40;15.27;;;9.00;;
1467;SDS011;727;48.892;9.544;2024-03-22T04:04:05;13.43;;;8.87;;
1467;SDS011;727;48.892;9.544;2024-03-22T04:06:33;11.23;;;8.63;;
1467;SDS011;727;48.892;9.544;2024-03-22T04:08:59;13.00;;;8.60;;
1467;SDS011;727;48.892;9.544;2024-03-22T04:11:27;12.00;;;8.80;;
1467;SDS011;727;48.892;9.544;2024-03-22T04:13:53;10.57;;;8.20;;
1467;SDS011;727;48.892;9.544;2024-03-22T04:16:20;14.10;;;9.68;;
1467;SDS011;727;48.892;9.544;2024-03-22T04:18:45;12.37;;;9.00;;
1467;SDS011;727;48.892;9.544;2024-03-22T04:21:12;12.70;;;9.80;;
1467;SDS011;727;48.892;9.544;2024-03-22T04:23:39;18.17;;;9.63;;
1467;SDS011;727;48.892;9.544;2024-03-22T04:26:06;11.75;;;9.70;;
1467;SDS011;727;48.892;9.544;2024-03-22T04:28:31;12.70;;;10.53;;
1467;SDS011;727;48.892;9.544;2024-03-22T04:30:58;21.48;;;11.52;;
1467;SDS011;727;48.892;9.544;2024-03-22T04:33:25;11.50;;;9.55;;
1467;SDS011;727;48.892;9.544;2024-03-22T04:35:51;15.20;;;9.88;;
1467;SDS011;727;48.892;9.544;2024-03-22T04:38:18;17.30;;;9.85;;
1467;SDS011;727;48.892;9.544;2024-03-22T04:40:45;11.82;;;10.25;;
1467;SDS011;727;48.892;9.544;2024-03-22T04:43:11;13.82;;;9.35;;
1467;SDS011;727;48.892;9.544;2024-03-22T04:45:38;12.57;;;10.55;;
1467;SDS011;727;48.892;9.544;2024-03-22T04:48:04;12.97;;;10.10;;
1467;SDS011;727;48.892;9.544;2024-03-22T04:50:31;14.00;;;9.82;;
1467;SDS011;727;48.892;9.544;2024-03-22T04:52:57;12.70;;;9.70;;
1467;SDS011;727;48.892;9.544;2024-03-22T04:55:23;16.80;;;11.00;;
1467;SDS011;727;48.892;9.544;2024-03-22T04:57:51;11.70;;;10.20;;
1467;SDS011;727;48.892;9.544;2024-03-22T05:00:18;16.17;;;10.93;;
1467;SDS011;727;48.892;9.544;2024-03-22T05:02:44;13.50;;;10.57;;
1467;SDS011;727;48.892;9.544;2024-03-22T05:05:11;11.00;;;9.55;;
1467;SDS011;727;48.892;9.544;2024-03-22T05:07:37;14.13;;;9.43;;
1467;SDS011;727;48.892;9.544;2024-03-22T05:10:03;20.33;;;11.68;;
1467;SDS011;727;48.892;9.544;2024-03-22T05:12:30;15.88;;;11.90;;
1467;SDS011;727;48.892;9.544;2024-03-22T05:14:58;12.90;;;9.82;;
1467;SDS011;727;48.892;9.544;2024-03-22T05:17:24;19.85;;;10.85;;
1467;SDS011;727;48.892;9.544;2024-03-22T05:19:50;11.82;;;10.00;;
1467;SDS011;727;48.892;9.544;2024-03-22T05:22:17;16.17;;;10.55;;
1467;SDS011;727;48.892;9.544;2024-03-22T05:24:45;16.52;;;10.70;;
1467;SDS011;727;48.892;9.544;2024-03-22T05:27:11;15.77;;;10.63;;
1467;SDS011;727;48.892;9.544;2024-03-22T05:29:38;12.73;;;9.43;;
1467;SDS011;727;48.892;9.544;2024-03-22T05:32:05;17.10;;;9.40;;
1467;SDS011;727;48.892;9.544;2024-03-22T05:34:32;11.40;;;9.95;;
1467;SDS011;727;48.892;9.544;2024-03-22T05:36:58;13.97;;;10.70;;
1467;SDS011;727;48.892;9.544;2024-03-22T05:39:24;13.60;;;10.25;;
1467;SDS011;727;48.892;9.544;2024-03-22T05:41:50;11.63;;;10.10;;
1467;SDS011;727;48.892;9.544;2024-03-22T05:44:17;12.80;;;10.65;;
1467;SDS011;727;48.892;9.544;2024-03-22T05:46:43;13.65;;;11.15;;
1467;SDS011;727;48.892;9.544;2024-03-22T05:49:11;13.35;;;10.20;;
1467;SDS011;727;48.892;9.544;2024-03-22T05:51:36;18.60;;;11.23;;
1467;SDS011;727;48.892;9.544;2024-03-22T05:54:03;19.83;;;12.43;;
1467;SDS011;727;48.892;9.544;2024-03-22T05:56:29;12.70;;;11.10;;
1467;SDS011;727;48.892;9.544;2024-03-22T05:58:56;17.88;;;12.10;;
1467;SDS011;727;48.892;9.544;2024-03-22T06:01:21;13.57;;;11.17;;
1467;SDS011;727;48.892;9.544;2024-03-22T06:03:48;13.68;;;11.65;;
1467;SDS011;727;48.892;9.544;2024-03-22T06:06:15;16.60;;;13.00;;
1467;SDS011;727;48.892;9.544;2024-03-22T06:08:42;13.00;;;11.70;;
1467;SDS011;727;48.892;9.544;2024-03-22T06:11:10;23.35;;;13.05;;
1467;SDS011;727;48.892;9.544;2024-03-22T06:13:36;21.80;;;14.00;;
1467;SDS011;727;48.892;9.544;2024-03-22T06:16:02;13.90;;;11.63;;
1467;SDS011;727;48.892;9.544;2024-03-22T06:18:29;13.50;;;10.52;;
1467;SDS011;727;48.892;9.544;2024-03-22T06:20:55;12.33;;;10.10;;
1467;SDS011;727;48.892;9.544;2024-03-22T06:23:23;16.42;;;11.27;;
1467;SDS011;727;48.892;9.544;2024-03-22T06:25:52;17.00;;;10.85;;
1467;SDS011;727;48.892;9.544;2024-03-22T06:28:18;13.18;;;8.50;;
1467;SDS011;727;48.892;9.544;2024-03-22T06:30:44;13.07;;;10.97;;
1467;SDS011;727;48.892;9.544;2024-03-22T06:33:11;15.63;;;12.50;;
1467;SDS011;727;48.892;9.544;2024-03-22T06:35:37;22.50;;;12.50;;
1467;SDS011;727;48.892;9.544;2024-03-22T06:38:04;12.95;;;10.48;;
1467;SDS011;727;48.892;9.544;2024-03-22T06:40:31;15.63;;;11.33;;
1467;SDS011;727;48.892;9.544;2024-03-22T06:42:57;12.77;;;10.93;;
1467;SDS011;727;48.892;9.544;2024-03-22T06:45:23;14.47;;;11.40;;
1467;SDS011;727;48.892;9.544;2024-03-22T06:47:50;12.73;;;9.95;;
1467;SDS011;727;48.892;9.544;2024-03-22T06:50:16;16.40;;;11.33;;
1467;SDS011;727;48.892;9.544;2024-03-22T06:52:44;18.80;;;12.48;;
1467;SDS011;727;48.892;9.544;2024-03-22T06:55:09;19.70;;;11.00;;
1467;SDS011;727;48.892;9.544;2024-03-22T06:57:37;20.00;;;10.85;;
1467;SDS011;727;48.892;9.544;2024-03-22T07:00:03;12.52;;;10.38;;
1467;SDS011;727;48.892;9.544;2024-03-22T07:02:32;12.85;;;11.52;;
1467;SDS011;727;48.892;9.544;2024-03-22T07:04:58;13.77;;;11.50;;
1467;SDS011;727;48.892;9.544;2024-03-22T07:07:25;15.00;;;10.18;;
1467;SDS011;727;48.892;9.544;2024-03-22T07:09:50;12.80;;;10.53;;
1467;SDS011;727;48.892;9.544;2024-03-22T07:12:17;14.43;;;12.27;;
1467;SDS011;727;48.892;9.544;2024-03-22T07:14:44;16.03;;;10.40;;
1467;SDS011;727;48.892;9.544;2024-03-22T07:17:11;12.57;;;10.82;;
1467;SDS011;727;48.892;9.544;2024-03-22T07:19:36;15.60;;;10.40;;
1467;SDS011;727;48.892;9.544;2024-03-22T07:22:03;15.70;;;11.15;;
1467;SDS011;727;48.892;9.544;2024-03-22T07:24:29;14.80;;;11.70;;
1467;SDS011;727;48.892;9.544;2024-03-22T07:26:55;19.40;;;10.45;;
1467;SDS011;727;48.892;9.544;2024-03-22T07:29:21;16.20;;;10.60;;
1467;SDS011;727;48.892;9.544;2024-03-22T07:31:49;12.90;;;10.30;;
1467;SDS011;727;48.892;9.544;2024-03-22T07:34:15;13.38;;;11.25;;
1467;SDS011;727;48.892;9.544;2024-03-22T07:36:41;15.30;;;10.38;;
1467;SDS011;727;48.892;9.544;2024-03-22T07:39:07;15.13;;;11.50;;
1467;SDS011;727;48.892;9.544;2024-03-22T07:41:34;13.10;;;10.70;;
1467;SDS011;727;48.892;9.544;2024-03-22T07:44:00;13.70;;;10.83;;
1467;SDS011;727;48.892;9.544;2024-03-22T07:46:27;14.03;;;9.73;;
1467;SDS011;727;48.892;9.544;2024-03-22T07:48:54;19.40;;;11.87;;
1467;SDS011;727;48.892;9.544;2024-03-22T07:51:22;14.47;;;10.40;;
1467;SDS011;727;48.892;9.544;2024-03-22T07:53:47;12.50;;;10.33;;
1467;SDS011;727;48.892;9.544;2024-03-22T07:56:14;17.87;;;12.63;;
1467;SDS011;727;48.892;9.544;2024-03-22T07:58:40;11.70;;;10.37;;
1467;SDS011;727;48.892;9.544;2024-03-22T08:01:08;12.27;;;10.67;;
1467;SDS011;727;48.892;9.544;2024-03-22T08:03:34;14.60;;;11.10;;
1467;SDS011;727;48.892;9.544;2024-03-22T08:06:02;15.90;;;11.10;;
1467;SDS011;727;48.892;9.544;2024-03-22T08:08:27;18.37;;;10.90;;
1467;SDS011;727;48.892;9.544;2024-03-22T08:10:54;13.20;;;11.13;;
1467;SDS011;727;48.892;9.544;2024-03-22T08:13:20;12.50;;;10.20;;
1467;SDS011;727;48.892;9.544;2024-03-22T08:15:46;16.10;;;11.77;;
1467;SDS011;727;48.892;9.544;2024-03-22T08:18:12;10.70;;;9.57;;
1467;SDS011;727;48.892;9.544;2024-03-22T08:20:39;15.63;;;11.20;;
1467;SDS011;727;48.892;9.544;2024-03-22T08:23:06;14.50;;;11.27;;
1467;SDS011;727;48.892;9.544;2024-03-22T08:25:32;15.30;;;11.03;;
1467;SDS011;727;48.892;9.544;2024-03-22T08:27:58;14.50;;;11.80;;
1467;SDS011;727;48.892;9.544;2024-03-22T08:30:25;12.97;;;11.33;;
1467;SDS011;727;48.892;9.544;2024-03-22T08:32:51;13.33;;;10.90;;
1467;SDS011;727;48.892;9.544;2024-03-22T08:35:18;13.23;;;11.13;;
1467;SDS011;727;48.892;9.544;2024-03-22T08:37:43;21.60;;;11.97;;
1467;SDS011;727;48.892;9.544;2024-03-22T08:40:12;13.67;;;10.77;;
1467;SDS011;727;48.892;9.544;2024-03-22T08:42:39;12.00;;;10.70;;
1467;SDS011;727;48.892;9.544;2024-03-22T08:45:06;14.00;;;11.07;;
1467;SDS011;727;48.892;9.544;2024-03-22T08:47:32;11.37;;;10.20;;
1467;SDS011;727;48.892;9.544;2024-03-22T08:49:59;12.70;;;10.47;;
1467;SDS011;727;48.892;9.544;2024-03-22T08:52:25;14.80;;;11.03;;
1467;SDS011;727;48.892;9.544;2024-03-22T08:54:52;13.40;;;10.77;;
1467;SDS011;727;48.892;9.544;2024-03-22T08:57:19;11.57;;;10.33;;
1467;SDS011;727;48.892;9.544;2024-03-22T08:59:47;9.30;;;8.40;;
1467;SDS011;727;48.892;9.544;2024-03-22T09:02:12;11.23;;;10.10;;
1467;SDS011;727;48.892;9.544;2024-03-22T09:04:39;14.37;;;10.17;;
1467;SDS011;727;48.892;9.544;2024-03-22T09:07:05;10.63;;;8.93;;
1467;SDS011;727;48.892;9.544;2024-03-22T09:09:32;10.70;;;8.90;;
1467;SDS011;727;48.892;9.544;2024-03-22T09:11:58;12.63;;;10.50;;
1467;SDS011;727;48.892;9.544;2024-03-22T09:14:26;16.10;;;9.77;;
1467;SDS011;727;48.892;9.544;2024-03-22T09:16:52;15.67;;;9.73;;
1467;SDS011;727;48.892;9.544;2024-03-22T09:19:18;10.90;;;9.60;;
1467;SDS011;727;48.892;9.544;2024-03-22T09:21:44;14.90;;;9.67;;
1467;SDS011;727;48.892;9.544;2024-03-22T09:24:11;12.27;;;9.37;;
1467;SDS011;727;48.892;9.544;2024-03-22T09:26:36;11.03;;;9.80;;
1467;SDS011;727;48.892;9.544;2024-03-22T09:29:03;10.23;;;9.13;;
1467;SDS011;727;48.892;9.544;2024-03-22T09:31:30;10.43;;;8.63;;
1467;SDS011;727;48.892;9.544;2024-03-22T09:33:58;11.63;;;10.43;;
1467;SDS011;727;48.892;9.544;2024-03-22T09:36:24;9.53;;;8.47;;
1467;SDS011;727;48.892;9.544;2024-03-22T09:38:50;9.70;;;8.80;;
1467;SDS011;727;48.892;9.544;2024-03-22T09:41:17;9.10;;;7.63;;
1467;SDS011;727;48.892;9.544;2024-03-22T09:43:50;9.10;;;7.20;;
1467;SDS011;727;48.892;9.544;2024-03-22T09:46:17;8.83;;;8.00;;
1467;SDS011;727;48.892;9.544;2024-03-22T09:48:46;9.77;;;7.80;;
1467;SDS011;727;48.892;9.544;2024-03-22T09:51:13;9.17;;;7.60;;
1467;SDS011;727;48.892;9.544;2024-03-22T09:53:42;8.60;;;7.60;;
1467;SDS011;727;48.892;9.544;2024-03-22T09:56:10;10.80;;;8.00;;
1467;SDS011;727;48.892;9.544;2024-03-22T09:58:39;12.87;;;7.60;;
1467;SDS011;727;48.892;9.544;2024-03-22T10:01:06;12.03;;;7.50;;
1467;SDS011;727;48.892;9.544;2024-03-22T10:03:32;8.70;;;7.80;;
1467;SDS011;727;48.892;9.544;2024-03-22T10:06:01;8.73;;;7.43;;
1467;SDS011;727;48.892;9.544;2024-03-22T10:08:27;10.00;;;7.47;;
1467;SDS011;727;48.892;9.544;2024-03-22T10:10:53;10.33;;;7.00;;
1467;SDS011;727;48.892;9.544;2024-03-22T10:13:20;9.60;;;7.23;;
1467;SDS011;727;48.892;9.544;2024-03-22T10:15:46;7.53;;;6.50;;
1467;SDS011;727;48.892;9.544;2024-03-22T10:18:14;7.60;;;6.90;;
1467;SDS011;727;48.892;9.544;2024-03-22T10:20:40;7.37;;;6.17;;
1467;SDS011;727;48.892;9.544;2024-03-22T10:23:08;5.70;;;5.20;;
1467;SDS011;727;48.892;9.544;2024-03-22T10:25:34;17.73;;;13.50;;
1467;SDS011;727;48.892;9.544;2024-03-22T10:28:01;9.40;;;6.33;;
1467;SDS011;727;48.892;9.544;2024-03-22T10:30:28;6.63;;;5.90;;
1467;SDS011;727;48.892;9.544;2024-03-22T10:32:56;7.37;;;6.67;;
1467;SDS011;727;48.892;9.544;2024-03-22T10:35:21;7.67;;;6.40;;
1467;SDS011;727;48.892;9.544;2024-03-22T10:37:50;14.37;;;7.87;;
1467;SDS011;727;48.892;9.544;2024-03-22T10:40:18;11.53;;;6.33;;
1467;SDS011;727;48.892;9.544;2024-03-22T10:42:46;12.30;;;7.30;;
1467;SDS011;727;48.892;9.544;2024-03-22T10:45:12;6.67;;;5.97;;
1467;SDS011;727;48.892;9.544;2024-03-22T10:47:39;7.17;;;6.47;;
1467;SDS011;727;48.892;9.544;2024-03-22T10:50:06;8.60;;;5.13;;
1467;SDS011;727;48.892;9.544;2024-03-22T10:52:36;6.80;;;4.97;;
1467;SDS011;727;48.892;9.544;2024-03-22T10:55:04;5.37;;;4.87;;
1467;SDS011;727;48.892;9.544;2024-03-22T10:57:35;8.50;;;4.63;;
1467;SDS011;727;48.892;9.544;2024-03-22T11:00:02;5.20;;;4.70;;
1467;SDS011;727;48.892;9.544;2024-03-22T11:02:35;8.20;;;4.20;;
1467;SDS011;727;48.892;9.544;2024-03-22T11:05:00;7.30;;;4.70;;
1467;SDS011;727;48.892;9.544;2024-03-22T11:07:28;6.83;;;4.30;;
1467;SDS011;727;48.892;9.544;2024-03-22T11:09:55;4.57;;;4.17;;
1467;SDS011;727;48.892;9.544;2024-03-22T11:12:24;5.53;;;5.00;;
1467;SDS011;727;48.892;9.544;2024-03-22T11:14:51;4.73;;;4.27;;
1467;SDS011;727;48.892;9.544;2024-03-22T11:17:19;5.27;;;4.63;;
1467;SDS011;727;48.892;9.544;2024-03-22T11:19:46;7.13;;;4.50;;
1467;SDS011;727;48.892;9.544;2024-03-22T11:22:12;4.17;;;3.50;;
1467;SDS011;727;48.892;9.544;2024-03-22T11:24:39;4.93;;;4.50;;
1467;SDS011;727;48.892;9.544;2024-03-22T11:27:05;5.47;;;4.27;;
1467;SDS011;727;48.892;9.544;2024-03-22T11:29:32;4.23;;;3.60;;
1467;SDS011;727;48.892;9.544;2024-03-22T11:32:00;4.37;;;3.97;;
1467;SDS011;727;48.892;9.544;2024-03-22T11:34:26;5.30;;;4.20;;
1467;SDS011;727;48.892;9.544;2024-03-22T11:36:53;6.97;;;4.00;;
1467;SDS011;727;48.892;9.544;2024-03-22T11:39:20;5.63;;;4.37;;
1467;SDS011;727;48.892;9.544;2024-03-22T11:41:47;8.90;;;4.90;;
1467;SDS011;727;48.892;9.544;2024-03-22T11:44:15;4.43;;;3.60;;
1467;SDS011;727;48.892;9.544;2024-03-22T11:46:43;4.57;;;4.13;;
1467;SDS011;727;48.892;9.544;2024-03-22T11:49:11;4.80;;;4.40;;
1467;SDS011;727;48.892;9.544;2024-03-22T11:51:38;6.90;;;6.20;;
1467;SDS011;727;48.892;9.544;2024-03-22T11:54:05;6.67;;;6.07;;
1467;SDS011;727;48.892;9.544;2024-03-22T11:56:34;6.33;;;5.73;;
1467;SDS011;727;48.892;9.544;2024-03-22T11:59:01;7.00;;;5.23;;
1467;SDS011;727;48.892;9.544;2024-03-22T12:01:28;6.90;;;6.07;;
1467;SDS011;727;48.892;9.544;2024-03-22T12:03:55;6.07;;;5.47;;
1467;SDS011;727;48.892;9.544;2024-03-22T12:06:22;25.73;;;6.53;;
1467;SDS011;727;48.892;9.544;2024-03-22T12:08:49;6.10;;;5.00;;
1467;SDS011;727;48.892;9.544;2024-03-22T12:11:15;7.43;;;4.60;;
1467;SDS011;727;48.892;9.544;2024-03-22T12:13:43;5.40;;;4.83;;
1467;SDS011;727;48.892;9.544;2024-03-22T12:16:09;9.70;;;5.23;;
1467;SDS011;727;48.892;9.544;2024-03-22T12:18:35;6.33;;;5.10;;
1467;SDS011;727;48.892;9.544;2024-03-22T12:21:01;7.37;;;5.27;;
1467;SDS011;727;48.892;9.544;2024-03-22T12:23:29;6.57;;;5.70;;
1467;SDS011;727;48.892;9.544;2024-03-22T12:25:55;5.10;;;4.70;;
1467;SDS011;727;48.892;9.544;2024-03-22T12:28:22;8.10;;;5.20;;
1467;SDS011;727;48.892;9.544;2024-03-22T12:30:48;6.83;;;5.47;;
1467;SDS011;727;48.892;9.544;2024-03-22T12:33:15;6.00;;;4.70;;
1467;SDS011;727;48.892;9.544;2024-03-22T12:35:41;5.57;;;4.50;;
1467;SDS011;727;48.892;9.544;2024-03-22T12:38:07;6.30;;;5.70;;
1467;SDS011;727;48.892;9.544;2024-03-22T12:40:37;9.53;;;5.67;;
1467;SDS011;727;48.892;9.544;2024-03-22T12:43:04;8.47;;;5.20;;
1467;SDS011;727;48.892;9.544;2024-03-22T12:45:29;6.40;;;5.73;;
1467;SDS011;727;48.892;9.544;2024-03-22T12:47:57;6.47;;;5.53;;
1467;SDS011;727;48.892;9.544;2024-03-22T12:50:23;7.30;;;5.37;;
1467;SDS011;727;48.892;9.544;2024-03-22T12:52:50;15.23;;;7.13;;
1467;SDS011;727;48.892;9.544;2024-03-22T12:55:16;6.30;;;5.20;;
1467;SDS011;727;48.892;9.544;2024-03-22T12:57:44;6.40;;;5.80;;
1467;SDS011;727;48.892;9.544;2024-03-22T13:00:10;8.33;;;5.70;;
1467;SDS011;727;48.892;9.544;2024-03-22T13:02:40;6.50;;;5.60;;
1467;SDS011;727;48.892;9.544;2024-03-22T13:05:06;6.93;;;5.63;;
1467;SDS011;727;48.892;9.544;2024-03-22T13:07:33;6.93;;;5.80;;
1467;SDS011;727;48.892;9.544;2024-03-22T13:09:59;6.70;;;5.00;;
1467;SDS011;727;48.892;9.544;2024-03-22T13:12:26;6.70;;;6.00;;
1467;SDS011;727;48.892;9.544;2024-03-22T13:14:53;6.53;;;5.93;;
1467;SDS011;727;48.892;9.544;2024-03-22T13:17:20;12.63;;;8.80;;
1467;SDS011;727;48.892;9.544;2024-03-22T13:19:45;5.93;;;5.43;;
1467;SDS011;727;48.892;9.544;2024-03-22T13:22:12;7.30;;;5.50;;
1467;SDS011;727;48.892;9.544;2024-03-22T13:24:38;10.23;;;7.33;;
1467;SDS011;727;48.892;9.544;2024-03-22T13:27:04;10.27;;;8.50;;
1467;SDS011;727;48.892;9.544;2024-03-22T13:29:30;14.80;;;9.00;;
1467;SDS011;727;48.892;9.544;2024-03-22T13:31:58;6.97;;;6.00;;
1467;SDS011;727;48.892;9.544;2024-03-22T13:34:24;6.67;;;5.70;;
1467;SDS011;727;48.892;9.544;2024-03-22T13:36:51;6.30;;;5.60;;
1467;SDS011;727;48.892;9.544;2024-03-22T13:39:17;5.50;;;5.00;;
1467;SDS011;727;48.892;9.544;2024-03-22T13:41:44;6.53;;;5.83;;
1467;SDS011;727;48.892;9.544;2024-03-22T13:44:10;6.83;;;5.00;;
1467;SDS011;727;48.892;9.544;2024-03-22T13:46:37;10.10;;;8.77;;
1467;SDS011;727;48.892;9.544;2024-03-22T13:49:12;9.83;;;7.80;;
1467;SDS011;727;48.892;9.544;2024-03-22T13:51:41;8.37;;;7.53;;
1467;SDS011;727;48.892;9.544;2024-03-22T13:54:07;8.10;;;7.20;;
1467;SDS011;727;48.892;9.544;2024-03-22T13:56:34;11.53;;;9.20;;
1467;SDS011;727;48.892;9.544;2024-03-22T13:59:00;9.37;;;8.40;;
1467;SDS011;727;48.892;9.544;2024-03-22T14:01:27;7.10;;;5.73;;
1467;SDS011;727;48.892;9.544;2024-03-22T14:03:53;8.60;;;5.63;;
1467;SDS011;727;48.892;9.544;2024-03-22T14:06:21;5.23;;;4.73;;
1467;SDS011;727;48.892;9.544;2024-03-22T14:08:46;5.40;;;4.73;;
1467;SDS011;727;48.892;9.544;2024-03-22T14:11:13;6.50;;;4.83;;
1467;SDS011;727;48.892;9.544;2024-03-22T14:13:39;10.50;;;7.63;;
1467;SDS011;727;48.892;9.544;2024-03-22T14:16:05;10.30;;;5.20;;
1467;SDS011;727;48.892;9.544;2024-03-22T14:18:33;7.90;;;5.40;;
1467;SDS011;727;48.892;9.544;2024-03-22T14:21:00;5.60;;;5.10;;
1467;SDS011;727;48.892;9.544;2024-03-22T14:23:28;8.87;;;6.17;;
1467;SDS011;727;48.892;9.544;2024-03-22T14:25:55;6.40;;;4.80;;
1467;SDS011;727;48.892;9.544;2024-03-22T14:28:21;7.97;;;7.17;;
1467;SDS011;727;48.892;9.544;2024-03-22T14:30:48;8.90;;;5.63;;
1467;SDS011;727;48.892;9.544;2024-03-22T14:33:14;6.43;;;5.77;;
1467;SDS011;727;48.892;9.544;2024-03-22T14:35:41;6.23;;;5.67;;
1467;SDS011;727;48.892;9.544;2024-03-22T14:38:07;6.60;;;5.40;;
1467;SDS011;727;48.892;9.544;2024-03-22T14:40:35;6.30;;;5.50;;
1467;SDS011;727;48.892;9.544;2024-03-22T14:43:02;9.27;;;5.00;;
1467;SDS011;727;48.892;9.544;2024-03-22T14:45:29;5.27;;;4.80;;
1467;SDS011;727;48.892;9.544;2024-03-22T14:47:55;5.97;;;5.03;;
1467;SDS011;727;48.892;9.544;2024-03-22T14:50:22;8.23;;;4.67;;
1467;SDS011;727;48.892;9.544;2024-03-22T14:52:49;7.33;;;5.73;;
1467;SDS011;727;48.892;9.544;2024-03-22T14:55:16;7.83;;;4.70;;
1467;SDS011;727;48.892;9.544;2024-03-22T14:57:44;6.93;;;6.23;;
1467;SDS011;727;48.892;9.544;2024-03-22T15:00:11;6.80;;;4.67;;
1467;SDS011;727;48.892;9.544;2024-03-22T15:02:38;7.90;;;5.60;;
1467;SDS011;727;48.892;9.544;2024-03-22T15:05:05;5.00;;;4.50;;
1467;SDS011;727;48.892;9.544;2024-03-22T15:07:31;5.43;;;4.90;;
1467;SDS011;727;48.892;9.544;2024-03-22T15:09:57;7.43;;;5.13;;
1467;SDS011;727;48.892;9.544;2024-03-22T15:12:23;5.40;;;4.60;;
1467;SDS011;727;48.892;9.544;2024-03-22T15:14:52;7.73;;;5.30;;